Time;durP1;ratioP1;P1;durP2;ratioP2;P2;SDS_P1;SDS_P2;PMS_P1;PMS_P2;Temp;Humidity;BMP_temperature;BMP_pressure;BME280_temperature;BME280_humidity;BME280_pressure;Samples;Min_cycle;Max_cycle;Signal;HPM_P1;HPM_P2
2021/06/23 00:02:12;;;;;;;23.80;15.37;;;16.90;99.90;;;;;;5079049;28;20619;-75
2021/06/23 00:04:39;;;;;;;23.40;16.40;;;16.90;99.90;;;;;;5096058;28;21236;-75
2021/06/23 00:07:05;;;;;;;18.70;15.73;;;16.90;99.90;;;;;;5095812;28;21030;-75
2021/06/23 00:09:32;;;;;;;16.50;14.80;;;16.90;99.90;;;;;;5096180;28;20968;-75
2021/06/23 00:11:58;;;;;;;17.13;15.13;;;16.90;99.90;;;;;;5097353;28;20684;-75
2021/06/23 00:14:25;;;;;;;16.33;14.60;;;16.90;99.90;;;;;;5096370;28;21127;-66
2021/06/23 00:16:52;;;;;;;18.30;15.13;;;17.00;99.90;;;;;;5097133;28;20632;-66
2021/06/23 00:19:22;;;;;;;18.30;16.40;;;16.90;99.90;;;;;;5097152;28;20594;-66
2021/06/23 00:21:48;;;;;;;20.20;15.30;;;16.90;99.90;;;;;;5096858;28;20585;-64
2021/06/23 00:24:14;;;;;;;16.37;14.77;;;16.90;99.90;;;;;;5097018;28;20593;-64
2021/06/23 00:26:41;;;;;;;17.07;15.27;;;16.90;99.90;;;;;;5096866;28;20589;-64
2021/06/23 00:29:07;;;;;;;16.77;14.77;;;16.90;99.90;;;;;;5096893;28;20585;-64
2021/06/23 00:31:34;;;;;;;20.33;14.73;;;16.80;99.90;;;;;;5095350;28;20643;-65
2021/06/23 00:34:02;;;;;;;16.30;14.70;;;16.80;99.90;;;;;;5094746;28;20627;-65
2021/06/23 00:36:29;;;;;;;18.10;16.20;;;16.80;99.90;;;;;;5096284;28;20971;-65
2021/06/23 00:38:55;;;;;;;27.00;16.90;;;16.80;99.90;;;;;;5096490;28;20628;-65
2021/06/23 00:41:21;;;;;;;21.43;16.70;;;16.80;99.90;;;;;;5096494;28;20790;-65
2021/06/23 00:43:48;;;;;;;19.63;17.63;;;16.80;99.90;;;;;;5096216;28;20628;-65
2021/06/23 00:46:15;;;;;;;18.23;16.40;;;16.80;99.90;;;;;;5096398;28;20621;-66
2021/06/23 00:48:42;;;;;;;22.90;16.50;;;16.80;99.90;;;;;;5096603;28;20605;-65
2021/06/23 00:51:10;;;;;;;21.00;17.93;;;16.70;99.90;;;;;;5096392;28;20666;-65
2021/06/23 00:53:36;;;;;;;23.27;17.00;;;16.70;99.90;;;;;;5096185;28;20593;-65
2021/06/23 00:56:03;;;;;;;20.40;16.87;;;16.70;99.90;;;;;;5096083;28;20589;-66
2021/06/23 00:58:29;;;;;;;19.03;17.03;;;16.70;99.90;;;;;;5095752;28;20627;-65
2021/06/23 01:00:57;;;;;;;19.00;17.00;;;16.70;99.90;;;;;;5096060;28;20611;-65
2021/06/23 01:03:25;;;;;;;21.57;17.60;;;16.70;99.90;;;;;;5094302;28;20633;-65
2021/06/23 01:05:53;;;;;;;19.13;17.30;;;16.70;99.90;;;;;;5096177;28;20613;-65
2021/06/23 01:08:19;;;;;;;19.47;17.60;;;16.80;99.90;;;;;;5095934;28;20605;-65
2021/06/23 01:10:46;;;;;;;23.00;16.97;;;16.80;99.90;;;;;;5094614;28;20597;-65
2021/06/23 01:13:26;;;;;;;18.77;16.87;;;16.70;99.90;;;;;;5095585;28;20605;-65
2021/06/23 01:15:55;;;;;;;20.23;15.80;;;16.70;99.90;;;;;;5095485;28;21115;-65
2021/06/23 01:18:25;;;;;;;19.17;16.77;;;16.70;99.90;;;;;;5095458;28;21013;-65
2021/06/23 01:20:52;;;;;;;19.47;16.47;;;16.80;99.90;;;;;;5095667;28;20646;-65
2021/06/23 01:23:18;;;;;;;24.07;17.03;;;16.80;99.90;;;;;;5095721;28;20594;-65
2021/06/23 01:25:47;;;;;;;24.27;16.50;;;16.80;99.90;;;;;;5094441;28;20632;-65
2021/06/23 01:28:14;;;;;;;18.83;16.33;;;16.80;99.90;;;;;;5095611;28;20597;-65
2021/06/23 01:30:40;;;;;;;22.93;17.73;;;16.70;99.90;;;;;;5093821;28;20666;-65
2021/06/23 01:33:09;;;;;;;19.97;16.73;;;16.80;99.90;;;;;;5095577;28;20602;-65
2021/06/23 01:35:35;;;;;;;18.33;16.40;;;16.70;99.90;;;;;;5095158;28;20667;-65
2021/06/23 01:38:04;;;;;;;20.77;16.40;;;16.70;99.90;;;;;;5095169;28;20629;-65
2021/06/23 01:40:31;;;;;;;18.37;15.90;;;16.70;99.90;;;;;;5094747;28;20645;-65
2021/06/23 01:42:57;;;;;;;23.07;18.07;;;16.70;99.90;;;;;;5094888;28;20621;-65
2021/06/23 01:45:25;;;;;;;24.93;16.47;;;16.70;99.90;;;;;;5095114;28;21131;-65
2021/06/23 01:47:51;;;;;;;18.93;16.50;;;16.60;99.90;;;;;;5093566;28;20640;-65
2021/06/23 01:50:21;;;;;;;21.17;15.13;;;16.60;99.90;;;;;;5095150;28;20564;-65
2021/06/23 01:52:47;;;;;;;17.43;15.60;;;16.60;99.90;;;;;;5094902;28;21170;-65
2021/06/23 01:55:27;;;;;;;21.13;16.00;;;16.60;99.90;;;;;;5094473;28;21155;-65
2021/06/23 01:58:07;;;;;;;20.00;16.23;;;16.60;99.90;;;;;;5094724;28;20652;-65
2021/06/23 02:00:47;;;;;;;19.47;16.30;;;16.60;99.90;;;;;;5093125;28;20649;-65
2021/06/23 02:03:17;;;;;;;19.20;15.50;;;16.60;99.90;;;;;;5094983;28;21001;-65
2021/06/23 02:06:04;;;;;;;18.90;16.63;;;16.50;99.90;;;;;;5095011;28;20558;-65
2021/06/23 02:09:08;;;;;;;17.57;15.47;;;16.50;99.90;;;;;;5093365;28;20625;-65
2021/06/23 02:11:46;;;;;;;29.60;15.97;;;16.50;99.90;;;;;;5094468;28;20609;-65
2021/06/23 02:14:38;;;;;;;15.90;13.83;;;16.50;99.90;;;;;;5094549;28;21190;-65
2021/06/23 02:17:10;;;;;;;16.27;14.40;;;16.50;99.90;;;;;;5094803;28;20554;-65
2021/06/23 02:19:45;;;;;;;21.47;13.73;;;16.50;99.90;;;;;;5094622;28;20613;-65
2021/06/23 02:22:17;;;;;;;16.43;13.80;;;16.50;99.90;;;;;;5093791;28;20631;-65
2021/06/23 02:24:45;;;;;;;15.07;13.00;;;16.40;99.90;;;;;;5094504;28;21165;-65
2021/06/23 02:27:13;;;;;;;15.23;13.13;;;16.40;99.90;;;;;;5094327;28;20631;-65
2021/06/23 02:29:41;;;;;;;18.30;13.87;;;16.50;99.90;;;;;;5094280;28;20624;-65
2021/06/23 02:32:12;;;;;;;17.30;13.90;;;16.40;99.90;;;;;;5113222;28;20639;-65
2021/06/23 02:34:40;;;;;;;15.60;13.80;;;16.50;99.90;;;;;;5113711;28;20621;-65
2021/06/23 02:37:09;;;;;;;21.47;14.67;;;16.50;99.90;;;;;;5114699;28;20588;-65
2021/06/23 02:39:36;;;;;;;19.00;12.90;;;16.50;99.90;;;;;;5114615;28;20595;-65
2021/06/23 02:42:04;;;;;;;19.83;14.40;;;16.40;99.90;;;;;;5114496;28;20620;-65
2021/06/23 02:44:31;;;;;;;17.03;12.90;;;16.40;99.90;;;;;;5096047;28;20623;-65
2021/06/23 02:46:59;;;;;;;14.60;13.10;;;16.40;99.90;;;;;;5114337;28;20599;-65
2021/06/23 02:49:26;;;;;;;15.50;13.73;;;16.40;99.90;;;;;;5114284;28;20600;-65
2021/06/23 02:51:56;;;;;;;20.97;13.63;;;16.40;99.90;;;;;;5114286;28;20599;-65
2021/06/23 02:54:24;;;;;;;20.10;13.40;;;16.40;99.90;;;;;;5114475;28;20556;-65
2021/06/23 02:56:51;;;;;;;16.73;12.83;;;16.40;99.90;;;;;;5114143;28;20635;-65
2021/06/23 02:59:19;;;;;;;14.63;13.23;;;16.40;99.90;;;;;;5114304;28;20632;-65
2021/06/23 03:01:47;;;;;;;16.53;13.10;;;16.40;99.90;;;;;;5095674;28;20971;-65
2021/06/23 03:04:14;;;;;;;16.33;13.07;;;16.40;99.90;;;;;;5113656;28;20704;-65
2021/06/23 03:06:40;;;;;;;19.17;13.60;;;16.40;99.90;;;;;;5112514;28;20613;-65
2021/06/23 03:09:07;;;;;;;13.87;12.53;;;16.40;99.90;;;;;;5113555;28;20616;-65
2021/06/23 03:11:35;;;;;;;19.93;14.10;;;16.50;99.90;;;;;;5113400;28;20616;-65
2021/06/23 03:14:02;;;;;;;17.70;13.77;;;16.40;99.90;;;;;;5113471;28;20701;-65
2021/06/23 03:16:29;;;;;;;15.20;13.60;;;16.40;99.90;;;;;;5113898;28;20631;-65
2021/06/23 03:18:56;;;;;;;15.40;13.37;;;16.40;99.90;;;;;;5113175;28;20656;-65
2021/06/23 03:21:22;;;;;;;15.93;13.40;;;16.40;99.90;;;;;;5113949;28;20584;-65
2021/06/23 03:23:51;;;;;;;16.33;13.20;;;16.40;99.90;;;;;;5113835;28;20616;-65
2021/06/23 03:26:19;;;;;;;19.53;13.57;;;16.30;99.90;;;;;;5113932;28;20601;-65
2021/06/23 03:28:45;;;;;;;17.70;13.87;;;16.30;99.90;;;;;;5113701;28;21040;-65
2021/06/23 03:31:12;;;;;;;19.67;13.60;;;16.40;99.90;;;;;;5095598;28;20688;-65
2021/06/23 03:33:40;;;;;;;19.60;13.80;;;16.30;99.90;;;;;;5113913;28;20595;-65
2021/06/23 03:36:07;;;;;;;14.73;13.20;;;16.30;99.90;;;;;;5113723;28;20965;-65
2021/06/23 03:38:33;;;;;;;16.30;13.33;;;16.30;99.90;;;;;;5113922;28;20667;-65
2021/06/23 03:41:00;;;;;;;15.00;13.43;;;16.30;99.90;;;;;;5113517;28;20609;-65
2021/06/23 03:43:29;;;;;;;17.37;14.67;;;16.30;99.90;;;;;;5095300;28;20623;-65
2021/06/23 03:45:55;;;;;;;14.77;13.27;;;16.30;99.90;;;;;;5113595;28;20592;-66
2021/06/23 03:48:22;;;;;;;15.60;14.00;;;16.30;99.90;;;;;;5113647;28;20615;-65
2021/06/23 03:50:48;;;;;;;17.50;14.70;;;16.30;99.90;;;;;;5113264;28;20642;-66
2021/06/23 03:53:15;;;;;;;18.73;13.87;;;16.30;99.90;;;;;;5113351;28;20608;-66
2021/06/23 03:55:42;;;;;;;15.80;14.10;;;16.20;99.90;;;;;;5113761;28;20616;-66
2021/06/23 03:58:08;;;;;;;20.57;15.17;;;16.20;99.90;;;;;;5113335;28;20643;-66
2021/06/23 04:00:34;;;;;;;17.77;14.20;;;16.10;99.90;;;;;;5113476;28;20596;-66
2021/06/23 04:03:01;;;;;;;18.77;13.47;;;16.10;99.90;;;;;;5113648;28;21150;-66
2021/06/23 04:05:27;;;;;;;15.30;13.80;;;16.10;99.90;;;;;;5112937;28;20626;-66
2021/06/23 04:07:54;;;;;;;18.33;15.37;;;16.10;99.90;;;;;;5113391;28;20978;-66
2021/06/23 04:10:20;;;;;;;20.23;15.53;;;16.00;99.90;;;;;;5113658;28;20599;-66
2021/06/23 04:12:46;;;;;;;17.33;14.70;;;16.00;99.90;;;;;;5095931;28;20604;-66
2021/06/23 04:15:14;;;;;;;18.83;15.23;;;16.00;99.90;;;;;;5113177;28;20619;-65
2021/06/23 04:17:42;;;;;;;18.20;14.03;;;16.00;99.90;;;;;;5113145;28;20663;-66
2021/06/23 04:20:10;;;;;;;16.17;14.47;;;15.90;99.90;;;;;;5117632;28;20679;-66
2021/06/23 04:22:36;;;;;;;20.03;14.03;;;15.90;99.90;;;;;;5117754;28;20619;-65
2021/06/23 04:25:05;;;;;;;18.83;14.40;;;15.90;99.90;;;;;;5116502;28;20776;-66
2021/06/23 04:27:32;;;;;;;17.63;14.07;;;15.90;99.90;;;;;;5117183;28;20603;-66
2021/06/23 04:29:58;;;;;;;17.00;14.50;;;16.00;99.90;;;;;;5098648;28;20616;-66
2021/06/23 04:32:25;;;;;;;19.00;15.07;;;16.00;99.90;;;;;;5099257;28;20655;-66
2021/06/23 04:34:51;;;;;;;22.40;14.50;;;16.10;99.90;;;;;;5117456;28;20703;-66
2021/06/23 04:37:17;;;;;;;17.33;14.90;;;16.10;99.90;;;;;;5117376;28;20595;-66
2021/06/23 04:39:44;;;;;;;18.90;14.60;;;16.20;99.90;;;;;;5116385;28;20644;-66
2021/06/23 04:42:10;;;;;;;18.70;13.60;;;16.20;99.90;;;;;;5099167;28;20604;-66
2021/06/23 04:44:37;;;;;;;20.70;16.00;;;16.20;99.90;;;;;;5116679;28;20620;-66
2021/06/23 04:47:03;;;;;;;18.13;14.30;;;16.10;99.90;;;;;;5116944;28;21134;-66
2021/06/23 04:49:30;;;;;;;22.50;15.47;;;16.10;99.90;;;;;;5116822;28;20600;-66
2021/06/23 04:51:56;;;;;;;16.40;14.70;;;16.10;99.90;;;;;;5116739;28;20588;-66
2021/06/23 04:54:22;;;;;;;17.27;14.37;;;16.10;99.90;;;;;;5116517;28;20592;-66
2021/06/23 04:56:49;;;;;;;21.53;14.20;;;16.10;99.90;;;;;;5116718;28;20588;-66
2021/06/23 04:59:15;;;;;;;16.20;13.80;;;16.10;99.90;;;;;;5116768;28;20632;-66
2021/06/23 05:01:42;;;;;;;17.00;14.33;;;16.10;99.90;;;;;;5098281;28;20628;-66
2021/06/23 05:04:08;;;;;;;18.87;14.93;;;16.10;99.90;;;;;;5116440;28;20611;-66
2021/06/23 05:06:35;;;;;;;18.10;13.83;;;16.10;99.90;;;;;;5116342;28;20604;-66
2021/06/23 05:09:03;;;;;;;15.87;14.17;;;16.20;99.90;;;;;;5116340;28;20604;-66
2021/06/23 05:11:35;;;;;;;16.83;14.07;;;16.20;99.90;;;;;;5115341;28;20626;-66
2021/06/23 05:14:02;;;;;;;18.60;14.10;;;16.20;99.90;;;;;;5097571;28;21173;-66
2021/06/23 05:16:29;;;;;;;16.97;13.43;;;16.30;99.90;;;;;;5116095;28;20604;-66
2021/06/23 05:18:57;;;;;;;16.27;13.57;;;16.30;99.90;;;;;;5116235;28;20638;-66
2021/06/23 05:21:24;;;;;;;13.07;11.77;;;16.40;99.90;;;;;;5115878;28;21037;-66
2021/06/23 05:23:50;;;;;;;28.47;13.80;;;16.50;99.90;;;;;;5116119;28;20620;-66
2021/06/23 05:26:17;;;;;;;14.13;12.50;;;16.50;99.90;;;;;;5115224;28;20612;-66
2021/06/23 05:28:43;;;;;;;12.47;11.17;;;16.50;99.90;;;;;;5116368;28;21149;-66
2021/06/23 05:31:09;;;;;;;18.17;12.53;;;16.60;99.90;;;;;;5114219;28;20746;-66
2021/06/23 05:33:36;;;;;;;13.60;12.27;;;16.70;99.90;;;;;;5115554;28;20588;-66
2021/06/23 05:36:03;;;;;;;16.73;13.00;;;16.90;99.90;;;;;;5115385;28;20607;-66
2021/06/23 05:38:29;;;;;;;12.43;11.20;;;17.00;99.90;;;;;;5096912;28;21064;-66
2021/06/23 05:40:55;;;;;;;15.43;11.67;;;17.00;99.90;;;;;;5115739;28;20636;-66
2021/06/23 05:43:21;;;;;;;13.50;11.43;;;17.00;99.90;;;;;;5115491;28;20589;-66
2021/06/23 05:45:48;;;;;;;15.03;11.77;;;17.10;99.90;;;;;;5115076;28;20627;-67
2021/06/23 05:48:14;;;;;;;14.83;11.83;;;17.20;99.90;;;;;;5096967;28;20610;-65
2021/06/23 05:50:41;;;;;;;13.20;10.90;;;17.30;99.90;;;;;;5115623;28;20596;-65
2021/06/23 05:53:08;;;;;;;11.63;10.50;;;17.50;99.90;;;;;;5096618;28;20639;-65
2021/06/23 05:55:36;;;;;;;15.53;10.70;;;17.70;99.90;;;;;;5115287;28;20588;-65
2021/06/23 05:58:02;;;;;;;13.80;10.90;;;17.80;99.90;;;;;;5114713;28;20686;-65
2021/06/23 06:00:29;;;;;;;11.40;9.37;;;17.60;99.90;;;;;;5115276;28;20614;-65
2021/06/23 06:02:55;;;;;;;12.50;9.57;;;17.60;99.90;;;;;;5115534;28;20631;-66
2021/06/23 06:05:21;;;;;;;14.50;10.20;;;17.50;99.90;;;;;;5115116;28;20584;-65
2021/06/23 06:07:50;;;;;;;13.87;12.63;;;17.60;99.90;;;;;;5114806;28;20723;-65
2021/06/23 06:10:16;;;;;;;13.07;10.60;;;17.70;99.90;;;;;;5114570;28;20620;-64
2021/06/23 06:12:42;;;;;;;13.90;9.67;;;17.80;99.90;;;;;;5115008;28;20592;-65
2021/06/23 06:15:09;;;;;;;11.20;10.10;;;17.70;99.90;;;;;;5114944;28;20584;-65
2021/06/23 06:17:35;;;;;;;9.63;8.83;;;17.80;99.90;;;;;;5114136;28;20723;-66
2021/06/23 06:20:04;;;;;;;14.80;10.40;;;17.90;99.90;;;;;;5114339;28;20663;-66
2021/06/23 06:22:32;;;;;;;9.93;9.10;;;17.90;99.90;;;;;;5114380;28;20617;-66
2021/06/23 06:24:59;;;;;;;9.57;8.70;;;17.80;99.90;;;;;;5114655;28;20596;-66
2021/06/23 06:27:25;;;;;;;10.20;9.00;;;17.80;99.90;;;;;;5114597;28;20588;-66
2021/06/23 06:29:52;;;;;;;12.33;9.33;;;17.80;99.90;;;;;;5114037;28;20722;-66
2021/06/23 06:32:18;;;;;;;12.30;10.10;;;17.60;99.90;;;;;;5114579;28;20642;-66
2021/06/23 06:34:45;;;;;;;12.30;9.93;;;17.50;99.90;;;;;;5114351;28;20588;-66
2021/06/23 06:37:11;;;;;;;30.57;11.07;;;17.50;99.90;;;;;;5114494;28;20599;-66
2021/06/23 06:39:38;;;;;;;10.80;9.70;;;17.60;99.90;;;;;;5113694;28;20652;-66
2021/06/23 06:42:05;;;;;;;12.83;9.40;;;17.80;99.90;;;;;;5114075;28;20978;-66
2021/06/23 06:44:32;;;;;;;13.40;9.57;;;17.90;99.90;;;;;;5114260;28;20947;-66
2021/06/23 06:46:59;;;;;;;17.60;10.47;;;17.80;99.90;;;;;;5114411;28;20738;-66
2021/06/23 06:49:28;;;;;;;11.80;10.70;;;17.90;99.90;;;;;;5114120;28;20596;-66
2021/06/23 06:52:00;;;;;;;12.50;10.93;;;18.00;99.90;;;;;;5114218;28;21036;-66
2021/06/23 06:54:27;;;;;;;9.07;8.27;;;18.30;99.90;;;;;;5095680;28;20624;-67
2021/06/23 06:56:54;;;;;;;13.30;9.63;;;18.40;99.90;;;;;;5113835;28;20612;-66
2021/06/23 06:59:21;;;;;;;18.30;9.63;;;18.30;99.90;;;;;;5113427;28;20660;-65
2021/06/23 07:01:48;;;;;;;14.37;9.23;;;18.40;99.90;;;;;;5113813;28;20614;-66
2021/06/23 07:04:16;;;;;;;24.83;9.80;;;18.50;99.90;;;;;;5113425;28;20689;-66
2021/06/23 07:06:43;;;;;;;9.40;8.50;;;18.60;99.90;;;;;;5113640;28;20932;-67
2021/06/23 07:09:09;;;;;;;12.90;8.90;;;18.70;99.90;;;;;;5113742;28;20596;-66
2021/06/23 07:11:36;;;;;;;13.67;8.77;;;18.70;99.90;;;;;;5113940;28;20592;-66
2021/06/23 07:14:03;;;;;;;8.87;8.17;;;19.10;99.90;;;;;;5113489;28;20595;-66
2021/06/23 07:16:30;;;;;;;9.30;8.37;;;19.20;99.90;;;;;;5113679;28;20592;-66
2021/06/23 07:18:56;;;;;;;17.50;9.40;;;19.30;99.90;;;;;;5112982;28;21194;-66
2021/06/23 07:21:23;;;;;;;10.10;8.40;;;19.50;99.90;;;;;;5113660;28;20596;-66
2021/06/23 07:23:53;;;;;;;9.43;8.53;;;19.80;99.90;;;;;;5113487;28;20626;-66
2021/06/23 07:26:20;;;;;;;10.60;9.17;;;19.80;99.90;;;;;;5113611;28;20561;-66
2021/06/23 07:28:52;;;;;;;9.37;8.50;;;19.70;99.90;;;;;;5113470;28;20620;-66
2021/06/23 07:31:28;;;;;;;9.70;8.80;;;19.90;99.90;;;;;;5112549;28;21217;-66
2021/06/23 07:36:48;;;;;;;11.20;8.50;;;20.00;99.90;;;;;;5098434;28;20588;-69
2021/06/23 07:39:17;;;;;;;9.83;8.83;;;20.20;99.90;;;;;;5113073;28;20656;-66
2021/06/23 07:41:46;;;;;;;13.93;8.87;;;20.40;99.90;;;;;;5113584;28;20620;-66
2021/06/23 07:44:15;;;;;;;8.90;8.10;;;20.30;99.90;;;;;;5113706;28;20593;-66
2021/06/23 07:46:48;;;;;;;9.00;7.90;;;20.30;99.90;;;;;;5113015;28;21154;-67
2021/06/23 07:49:16;;;;;;;10.30;9.20;;;20.20;99.90;;;;;;5113118;28;21208;-66
2021/06/23 08:10:37;;;;;;;13.57;9.40;;;19.50;99.90;;;;;;5116743;28;20667;-66
2021/06/23 08:13:05;;;;;;;19.27;9.03;;;19.40;99.90;;;;;;5116638;28;21202;-66
2021/06/23 08:15:38;;;;;;;21.77;9.47;;;19.60;99.90;;;;;;5116737;28;21162;-66
2021/06/23 08:18:05;;;;;;;18.23;8.90;;;19.70;99.90;;;;;;5116699;28;20583;-66
2021/06/23 08:20:31;;;;;;;9.53;8.57;;;20.00;99.90;;;;;;5116784;28;20655;-66
2021/06/23 08:22:58;;;;;;;9.97;8.83;;;20.20;99.90;;;;;;5116633;28;20612;-66
2021/06/23 08:25:24;;;;;;;10.40;9.50;;;20.50;99.90;;;;;;5116450;28;21154;-66
2021/06/23 08:27:52;;;;;;;10.00;9.10;;;20.60;99.90;;;;;;5115959;28;20620;-66
2021/06/23 08:30:19;;;;;;;9.80;8.97;;;20.70;99.90;;;;;;5116371;28;20704;-66
2021/06/23 08:32:47;;;;;;;21.00;9.87;;;21.00;99.90;;;;;;5112557;28;20628;-66
2021/06/23 08:35:14;;;;;;;10.17;9.27;;;21.20;99.90;;;;;;5105028;28;20620;-66
2021/06/23 08:37:42;;;;;;;9.90;9.10;;;21.30;99.90;;;;;;5114648;28;20614;-66
2021/06/23 08:40:11;;;;;;;10.23;9.23;;;21.70;99.90;;;;;;5103872;28;20660;-66
2021/06/23 08:42:38;;;;;;;9.50;8.23;;;21.80;99.90;;;;;;5116056;28;21238;-66
2021/06/23 08:45:06;;;;;;;8.50;7.70;;;21.90;99.90;;;;;;5098097;28;20703;-66
2021/06/23 08:47:37;;;;;;;8.40;7.70;;;22.10;99.90;;;;;;5116197;28;20978;-66
2021/06/23 08:50:04;;;;;;;9.20;8.30;;;22.30;99.90;;;;;;5115990;28;20584;-66
2021/06/23 08:52:31;;;;;;;10.87;9.87;;;22.40;99.90;;;;;;5116175;28;20793;-66
2021/06/23 08:54:58;;;;;;;14.33;8.87;;;22.50;99.90;;;;;;5112154;27;20639;-66
2021/06/23 08:57:24;;;;;;;9.50;8.80;;;22.30;99.90;;;;;;5110377;28;20722;-66
2021/06/23 08:59:50;;;;;;;10.00;9.20;;;22.70;99.90;;;;;;5115903;28;20656;-66
2021/06/23 09:02:17;;;;;;;9.63;8.50;;;22.60;99.90;;;;;;5116074;28;21109;-66
2021/06/23 09:05:00;;;;;;;9.07;8.43;;;22.40;99.90;;;;;;5114224;28;20626;-66
2021/06/23 09:07:48;;;;;;;10.80;9.83;;;22.20;99.90;;;;;;5115596;28;20620;-66
2021/06/23 09:10:21;;;;;;;12.47;11.30;;;22.10;99.90;;;;;;5102992;28;20741;-66
2021/06/23 09:13:08;;;;;;;11.10;10.03;;;22.10;99.90;;;;;;5095896;28;20561;-66
2021/06/23 09:15:42;;;;;;;10.13;9.13;;;22.60;99.90;;;;;;5112545;28;20616;-67
2021/06/23 09:18:18;;;;;;;10.10;9.07;;;22.80;99.90;;;;;;5097567;28;20604;-66
2021/06/23 09:20:46;;;;;;;10.60;9.60;;;22.70;99.90;;;;;;5115953;28;21245;-66
2021/06/23 09:23:13;;;;;;;11.80;10.63;;;22.50;99.90;;;;;;5097009;28;20616;-66
2021/06/23 09:25:44;;;;;;;11.80;10.83;;;22.20;99.90;;;;;;5115863;28;21123;-66
2021/06/23 09:28:18;;;;;;;14.13;10.40;;;22.10;99.90;;;;;;5098404;28;20777;-66
2021/06/23 09:30:47;;;;;;;10.80;9.83;;;22.30;99.90;;;;;;5115634;28;20642;-66
2021/06/23 09:33:25;;;;;;;10.03;9.33;;;22.40;99.90;;;;;;5115813;28;20666;-66
2021/06/23 09:36:00;;;;;;;10.67;9.70;;;22.40;99.90;;;;;;5115892;28;20557;-66
2021/06/23 09:38:38;;;;;;;12.30;11.30;;;22.40;99.90;;;;;;5115775;28;21126;-66
2021/06/23 09:41:17;;;;;;;10.20;9.20;;;22.60;99.90;;;;;;5115668;28;20624;-66
2021/06/23 09:43:44;;;;;;;9.13;8.40;;;22.80;99.90;;;;;;5115398;28;20637;-66
2021/06/23 09:46:15;;;;;;;9.17;8.47;;;23.20;99.90;;;;;;5115400;28;20589;-66
2021/06/23 09:48:42;;;;;;;8.80;8.00;;;23.30;99.90;;;;;;5115221;28;20620;-66
2021/06/23 09:51:13;;;;;;;7.83;7.23;;;22.90;99.90;;;;;;5115468;28;20589;-66
2021/06/23 09:53:39;;;;;;;10.53;9.73;;;23.20;99.90;;;;;;5115171;28;20629;-65
2021/06/23 09:56:27;;;;;;;8.97;8.20;;;23.20;99.90;;;;;;5114694;28;20608;-66
2021/06/23 09:58:55;;;;;;;8.97;8.27;;;23.40;99.90;;;;;;5114921;28;20652;-65
2021/06/23 10:01:23;;;;;;;9.43;8.60;;;22.90;99.90;;;;;;5112218;28;20622;-66
2021/06/23 10:03:57;;;;;;;9.73;8.87;;;23.10;99.90;;;;;;5103667;28;21151;-66
2021/06/23 10:06:32;;;;;;;8.00;7.40;;;23.30;99.90;;;;;;5114597;28;20631;-66
2021/06/23 10:09:27;;;;;;;8.53;7.77;;;23.30;99.90;;;;;;5114240;28;20620;-66
2021/06/23 10:11:55;;;;;;;7.80;7.20;;;23.60;99.90;;;;;;5114344;28;21158;-66
2021/06/23 10:14:23;;;;;;;7.77;7.27;;;24.10;69.30;;;;;;5114742;28;20600;-66
2021/06/23 10:16:51;;;;;;;8.30;7.60;;;24.20;7.00;;;;;;5114510;28;20649;-65
2021/06/23 10:19:18;;;;;;;7.90;7.30;;;24.00;36.70;;;;;;5113767;28;20682;-65
2021/06/23 10:21:46;;;;;;;9.40;7.77;;;23.60;61.50;;;;;;5114845;28;20943;-65
2021/06/23 10:24:14;;;;;;;6.47;5.97;;;23.40;99.90;;;;;;5113756;28;20616;-65
2021/06/23 10:26:46;;;;;;;7.40;6.20;;;24.20;47.50;;;;;;5100043;28;20626;-65
2021/06/23 10:29:15;;;;;;;7.57;6.87;;;24.20;1.00;;;;;;5114180;28;20642;-65
2021/06/23 10:31:42;;;;;;;6.00;5.70;;;24.60;1.00;;;;;;5113702;28;20966;-65
2021/06/23 10:34:09;;;;;;;7.97;7.30;;;24.50;1.00;;;;;;5113521;28;20619;-66
2021/06/23 10:36:36;;;;;;;6.73;6.13;;;24.30;1.00;;;;;;5113641;28;20967;-65
2021/06/23 10:39:04;;;;;;;5.93;5.53;;;24.60;1.00;;;;;;5113515;28;20662;-65
2021/06/23 10:41:43;;;;;;;6.10;5.60;;;24.60;1.00;;;;;;5104897;28;20890;-65
2021/06/23 10:44:20;;;;;;;5.63;5.30;;;25.00;1.00;;;;;;5094373;28;20609;-65
2021/06/23 10:46:53;;;;;;;5.90;5.50;;;26.00;1.00;;;;;;5093385;28;20619;-66
2021/06/23 10:49:40;;;;;;;6.20;5.80;;;25.50;1.00;;;;;;5093787;28;20617;-66
2021/06/23 10:52:25;;;;;;;11.93;7.57;;;25.10;1.00;;;;;;5093917;28;20590;-66
2021/06/23 10:55:22;;;;;;;9.20;5.80;;;25.00;15.40;;;;;;5093152;28;20620;-66
2021/06/23 10:57:50;;;;;;;6.20;5.77;;;25.20;1.00;;;;;;5075782;28;20659;-66
2021/06/23 11:00:18;;;;;;;6.53;6.13;;;25.40;1.00;;;;;;5094030;28;20653;-65
2021/06/23 11:02:48;;;;;;;6.10;5.67;;;25.30;99.90;;;;;;5113898;28;20603;-65
2021/06/23 11:05:22;;;;;;;6.40;6.00;;;25.60;1.00;;;;;;5113928;28;20655;-68
2021/06/23 11:07:50;;;;;;;6.87;6.27;;;25.70;94.40;;;;;;5113961;28;20557;-66
2021/06/23 11:10:41;;;;;;;49.60;9.37;;;25.50;99.90;;;;;;5113275;28;20604;-66
2021/06/23 11:13:17;;;;;;;6.27;5.93;;;25.20;99.90;;;;;;5114064;28;20556;-66
2021/06/23 11:15:45;;;;;;;6.07;5.57;;;25.40;16.10;;;;;;5113910;28;20587;-66
2021/06/23 11:18:17;;;;;;;6.13;5.63;;;25.10;1.00;;;;;;5113304;28;20612;-66
2021/06/23 11:21:10;;;;;;;5.70;5.23;;;25.00;1.00;;;;;;5113721;28;20664;-66
2021/06/23 11:23:45;;;;;;;57.00;10.83;;;25.40;1.00;;;;;;5108981;28;20631;-66
2021/06/23 11:26:23;;;;;;;6.47;5.90;;;25.50;99.90;;;;;;5113444;28;20612;-67
2021/06/23 11:28:57;;;;;;;7.80;6.77;;;25.10;99.90;;;;;;5105468;28;20621;-67
2021/06/23 11:31:42;;;;;;;6.00;5.60;;;24.80;99.90;;;;;;5085583;28;20735;-66
2021/06/23 11:34:09;;;;;;;6.67;6.13;;;25.10;99.90;;;;;;5112806;28;20616;-67
2021/06/23 11:36:36;;;;;;;7.40;6.27;;;25.30;99.90;;;;;;5113228;28;20612;-66
2021/06/23 11:39:05;;;;;;;6.20;5.67;;;25.30;99.90;;;;;;5113595;28;20600;-67
2021/06/23 11:41:32;;;;;;;6.67;5.90;;;25.50;99.90;;;;;;5113697;28;20630;-67
2021/06/23 11:43:58;;;;;;;17.63;6.73;;;26.10;99.90;;;;;;5113600;28;20592;-67
2021/06/23 11:46:25;;;;;;;5.33;5.03;;;27.20;99.90;;;;;;5099665;28;20621;-67
2021/06/23 11:48:51;;;;;;;5.93;5.43;;;27.80;99.90;;;;;;5111656;28;20620;-67
2021/06/23 11:51:17;;;;;;;6.33;5.93;;;26.90;99.90;;;;;;5113273;28;20624;-67
2021/06/23 11:53:44;;;;;;;6.63;6.03;;;27.00;99.90;;;;;;5113068;28;20644;-65
2021/06/23 11:56:10;;;;;;;5.13;4.87;;;27.00;99.90;;;;;;5113018;28;20995;-66
2021/06/23 11:58:37;;;;;;;4.30;4.10;;;26.60;99.90;;;;;;5095155;28;21010;-66
2021/06/23 12:01:03;;;;;;;5.43;5.03;;;27.10;99.90;;;;;;5112284;28;20678;-66
2021/06/23 12:03:29;;;;;;;5.77;5.30;;;27.70;99.90;;;;;;5112914;28;20972;-66
2021/06/23 12:05:56;;;;;;;5.00;4.70;;;28.00;99.90;;;;;;5112269;28;20633;-66
2021/06/23 12:08:23;;;;;;;5.80;5.30;;;28.00;99.90;;;;;;5112214;28;20653;-66
2021/06/23 12:10:49;;;;;;;4.70;4.50;;;28.00;99.90;;;;;;5109742;28;20645;-67
2021/06/23 12:13:16;;;;;;;4.50;4.20;;;29.10;99.90;;;;;;5103139;28;20647;-67
2021/06/23 12:15:43;;;;;;;4.77;4.47;;;29.60;99.90;;;;;;5078672;28;20639;-67
2021/06/23 12:18:10;;;;;;;5.03;4.73;;;29.20;99.90;;;;;;5106062;28;20609;-67
2021/06/23 12:20:39;;;;;;;11.50;4.63;;;28.70;99.90;;;;;;5108433;28;20688;-68
2021/06/23 12:23:08;;;;;;;5.10;4.63;;;28.90;99.90;;;;;;5113984;28;20614;-67
2021/06/23 12:25:47;;;;;;;5.87;5.47;;;29.20;99.90;;;;;;5113376;28;20603;-67
2021/06/23 12:28:15;;;;;;;4.87;4.60;;;29.60;99.90;;;;;;5113511;28;20560;-66
2021/06/23 12:30:45;;;;;;;5.40;5.10;;;30.20;99.90;;;;;;5112648;28;20647;-65
2021/06/23 12:33:12;;;;;;;5.23;4.83;;;30.50;99.90;;;;;;5113453;28;20607;-66
2021/06/23 12:35:41;;;;;;;5.00;4.80;;;29.40;99.90;;;;;;5112707;28;20695;-66
2021/06/23 12:38:11;;;;;;;6.50;5.10;;;29.00;99.90;;;;;;5094637;28;20613;-66
2021/06/23 12:40:38;;;;;;;6.33;5.73;;;28.80;99.90;;;;;;5116146;28;20650;-66
2021/06/23 12:43:13;;;;;;;5.40;5.00;;;29.30;99.90;;;;;;5116879;28;20600;-64
2021/06/23 12:45:43;;;;;;;12.90;5.47;;;30.80;99.90;;;;;;5116621;28;21203;-65
2021/06/23 12:48:10;;;;;;;11.43;5.67;;;29.60;99.90;;;;;;5115979;28;20612;-65
2021/06/23 12:50:37;;;;;;;7.07;6.37;;;29.50;99.90;;;;;;5116473;28;20596;-65
2021/06/23 12:53:03;;;;;;;5.20;4.90;;;29.90;99.90;;;;;;5116808;28;20620;-65
2021/06/23 12:55:30;;;;;;;4.60;4.30;;;29.10;99.90;;;;;;5116451;28;20598;-65
2021/06/23 12:57:56;;;;;;;5.03;4.73;;;29.30;99.90;;;;;;5116423;28;20618;-65
2021/06/23 13:00:24;;;;;;;6.33;5.83;;;30.40;99.90;;;;;;5115977;28;21174;-65
2021/06/23 13:02:51;;;;;;;4.80;4.50;;;29.30;99.90;;;;;;5116292;28;20601;-65
2021/06/23 13:05:17;;;;;;;10.27;5.50;;;29.10;99.90;;;;;;5116334;28;20599;-66
2021/06/23 13:07:45;;;;;;;5.20;4.10;;;30.10;99.90;;;;;;5116073;28;20933;-66